sensor_id;sensor_type;location;lat;lon;timestamp;pressure;altitude;pressure_sealevel;temperature;humidity
59531;BME280;45349;48.692;8.186;2023-07-24T00:01:33;150612.75;;;18.15;100.00
59531;BME280;45349;48.692;8.186;2023-07-24T00:04:00;150624.00;;;18.20;100.00
59531;BME280;45349;48.692;8.186;2023-07-24T00:06:26;150640.28;;;18.26;100.00
59531;BME280;45349;48.692;8.186;2023-07-24T00:08:54;150631.50;;;18.23;100.00
59531;BME280;45349;48.692;8.186;2023-07-24T00:11:21;150637.78;;;18.25;100.00
59531;BME280;45349;48.692;8.186;2023-07-24T00:13:47;150637.78;;;18.25;100.00
59531;BME280;45349;48.692;8.186;2023-07-24T00:16:14;150650.31;;;18.31;100.00
59531;BME280;45349;48.692;8.186;2023-07-24T00:18:40;150644.03;;;18.28;100.00
59531;BME280;45349;48.692;8.186;2023-07-24T00:21:07;150644.03;;;18.28;100.00
59531;BME280;45349;48.692;8.186;2023-07-24T00:23:34;150660.31;;;18.35;100.00
59531;BME280;45349;48.692;8.186;2023-07-24T00:26:02;150677.84;;;18.42;100.00
59531;BME280;45349;48.692;8.186;2023-07-24T00:28:28;150680.34;;;18.43;100.00
59531;BME280;45349;48.692;8.186;2023-07-24T00:30:55;150666.56;;;18.37;100.00
59531;BME280;45349;48.692;8.186;2023-07-24T00:33:22;150649.03;;;18.30;100.00
59531;BME280;45349;48.692;8.186;2023-07-24T00:35:48;150655.31;;;18.33;100.00
59531;BME280;45349;48.692;8.186;2023-07-24T00:38:15;150641.50;;;18.27;100.00
59531;BME280;45349;48.692;8.186;2023-07-24T00:40:41;150636.50;;;18.25;100.00
59531;BME280;45349;48.692;8.186;2023-07-24T00:43:09;150626.50;;;18.21;100.00
59531;BME280;45349;48.692;8.186;2023-07-24T00:45:36;150621.50;;;18.19;100.00
59531;BME280;45349;48.692;8.186;2023-07-24T00:48:03;150629.00;;;18.22;100.00
59531;BME280;45349;48.692;8.186;2023-07-24T00:50:29;150661.53;;;18.35;99.08
59531;BME280;45349;48.692;8.186;2023-07-24T00:52:57;150650.31;;;18.31;100.00
59531;BME280;45349;48.692;8.186;2023-07-24T00:55:23;150651.53;;;18.31;97.50
59531;BME280;45349;48.692;8.186;2023-07-24T00:57:51;150640.28;;;18.26;100.00
59531;BME280;45349;48.692;8.186;2023-07-24T01:00:19;150621.50;;;18.19;100.00
59531;BME280;45349;48.692;8.186;2023-07-24T01:02:46;150591.47;;;18.06;100.00
59531;BME280;45349;48.692;8.186;2023-07-24T01:05:13;150572.66;;;17.98;100.00
59531;BME280;45349;48.692;8.186;2023-07-24T01:07:41;150583.94;;;18.03;100.00
59531;BME280;45349;48.692;8.186;2023-07-24T01:10:09;150587.72;;;18.05;100.00
59531;BME280;45349;48.692;8.186;2023-07-24T01:12:39;150588.97;;;18.05;100.00
59531;BME280;45349;48.692;8.186;2023-07-24T01:15:12;150558.94;;;17.93;100.00
59531;BME280;45349;48.692;8.186;2023-07-24T01:17:46;150570.16;;;17.97;100.00
59531;BME280;45349;48.692;8.186;2023-07-24T01:20:17;150577.72;;;18.00;100.00
59531;BME280;45349;48.692;8.186;2023-07-24T01:25:32;150603.97;;;18.11;100.00
59531;BME280;45349;48.692;8.186;2023-07-24T01:28:06;150591.47;;;18.06;100.00
59531;BME280;45349;48.692;8.186;2023-07-24T01:30:33;150571.44;;;17.98;100.00
59531;BME280;45349;48.692;8.186;2023-07-24T01:33:00;150566.44;;;17.96;100.00
59531;BME280;45349;48.692;8.186;2023-07-24T01:35:27;150550.16;;;17.89;100.00
59531;BME280;45349;48.692;8.186;2023-07-24T01:37:56;150526.41;;;17.79;100.00
59531;BME280;45349;48.692;8.186;2023-07-24T01:40:23;150518.88;;;17.76;100.00
59531;BME280;45349;48.692;8.186;2023-07-24T01:42:50;150508.88;;;17.72;100.00
59531;BME280;45349;48.692;8.186;2023-07-24T01:45:18;150498.88;;;17.68;100.00
59531;BME280;45349;48.692;8.186;2023-07-24T01:47:46;150476.34;;;17.59;100.00
59531;BME280;45349;48.692;8.186;2023-07-24T01:50:12;150467.56;;;17.55;100.00
59531;BME280;45349;48.692;8.186;2023-07-24T01:52:39;150472.56;;;17.57;100.00
59531;BME280;45349;48.692;8.186;2023-07-24T01:55:06;150462.56;;;17.53;100.00
59531;BME280;45349;48.692;8.186;2023-07-24T01:57:34;150473.84;;;17.58;100.00
59531;BME280;45349;48.692;8.186;2023-07-24T02:00:00;150481.34;;;17.61;100.00
59531;BME280;45349;48.692;8.186;2023-07-24T02:02:28;150498.88;;;17.68;100.00
59531;BME280;45349;48.692;8.186;2023-07-24T02:04:55;150497.59;;;17.67;100.00
59531;BME280;45349;48.692;8.186;2023-07-24T02:07:21;150495.09;;;17.66;100.00
59531;BME280;45349;48.692;8.186;2023-07-24T02:09:49;150505.09;;;17.70;100.00
59531;BME280;45349;48.692;8.186;2023-07-24T02:12:16;150517.63;;;17.76;100.00
59531;BME280;45349;48.692;8.186;2023-07-24T02:14:42;150522.63;;;17.78;100.00
59531;BME280;45349;48.692;8.186;2023-07-24T02:17:10;150516.38;;;17.75;100.00
59531;BME280;45349;48.692;8.186;2023-07-24T02:19:38;150505.09;;;17.70;100.00
59531;BME280;45349;48.692;8.186;2023-07-24T02:22:05;150501.38;;;17.69;100.00
59531;BME280;45349;48.692;8.186;2023-07-24T02:24:34;150498.88;;;17.68;100.00
59531;BME280;45349;48.692;8.186;2023-07-24T02:27:01;150498.88;;;17.68;100.00
59531;BME280;45349;48.692;8.186;2023-07-24T02:29:30;150508.88;;;17.72;100.00
59531;BME280;45349;48.692;8.186;2023-07-24T02:31:57;150532.63;;;17.82;100.00
59531;BME280;45349;48.692;8.186;2023-07-24T02:34:24;150537.63;;;17.84;100.00
59531;BME280;45349;48.692;8.186;2023-07-24T02:36:54;150535.13;;;17.83;100.00
59531;BME280;45349;48.692;8.186;2023-07-24T02:39:21;150531.41;;;17.81;100.00
59531;BME280;45349;48.692;8.186;2023-07-24T02:41:53;150533.91;;;17.82;100.00
59531;BME280;45349;48.692;8.186;2023-07-24T02:44:19;150518.88;;;17.76;100.00
59531;BME280;45349;48.692;8.186;2023-07-24T02:46:53;150507.59;;;17.71;100.00
59531;BME280;45349;48.692;8.186;2023-07-24T02:49:28;150492.59;;;17.65;100.00
59531;BME280;45349;48.692;8.186;2023-07-24T02:52:01;150485.09;;;17.62;100.00
59531;BME280;45349;48.692;8.186;2023-07-24T02:54:31;150473.84;;;17.58;100.00
59531;BME280;45349;48.692;8.186;2023-07-24T02:57:01;150458.84;;;17.51;100.00
59531;BME280;45349;48.692;8.186;2023-07-24T02:59:29;150452.59;;;17.49;100.00
59531;BME280;45349;48.692;8.186;2023-07-24T03:04:38;150418.81;;;17.35;100.00
59531;BME280;45349;48.692;8.186;2023-07-24T03:07:06;150413.81;;;17.33;100.00
59531;BME280;45349;48.692;8.186;2023-07-24T03:09:37;150412.56;;;17.32;100.00
59531;BME280;45349;48.692;8.186;2023-07-24T03:12:05;150402.56;;;17.28;100.00
59531;BME280;45349;48.692;8.186;2023-07-24T03:14:36;150396.28;;;17.25;100.00
59531;BME280;45349;48.692;8.186;2023-07-24T03:17:07;150387.56;;;17.22;100.00
59531;BME280;45349;48.692;8.186;2023-07-24T03:19:36;150391.28;;;17.23;100.00
59531;BME280;45349;48.692;8.186;2023-07-24T03:22:09;150392.56;;;17.24;100.00
59531;BME280;45349;48.692;8.186;2023-07-24T03:24:37;150391.28;;;17.23;100.00
59531;BME280;45349;48.692;8.186;2023-07-24T03:27:04;150397.56;;;17.26;100.00
59531;BME280;45349;48.692;8.186;2023-07-24T03:29:31;150406.31;;;17.30;100.00
59531;BME280;45349;48.692;8.186;2023-07-24T03:31:58;150423.81;;;17.37;100.00
59531;BME280;45349;48.692;8.186;2023-07-24T03:34:24;150443.81;;;17.45;100.00
59531;BME280;45349;48.692;8.186;2023-07-24T03:36:53;150446.31;;;17.46;100.00
59531;BME280;45349;48.692;8.186;2023-07-24T03:39:20;150445.09;;;17.46;100.00
59531;BME280;45349;48.692;8.186;2023-07-24T03:41:53;150447.59;;;17.47;100.00
59531;BME280;45349;48.692;8.186;2023-07-24T03:44:19;150443.81;;;17.45;100.00
59531;BME280;45349;48.692;8.186;2023-07-24T03:46:50;150450.09;;;17.48;100.00
59531;BME280;45349;48.692;8.186;2023-07-24T03:49:16;150457.56;;;17.51;100.00
59531;BME280;45349;48.692;8.186;2023-07-24T03:51:43;150467.56;;;17.55;100.00
59531;BME280;45349;48.692;8.186;2023-07-24T03:54:09;150477.56;;;17.59;100.00
59531;BME280;45349;48.692;8.186;2023-07-24T03:56:37;150467.56;;;17.55;100.00
59531;BME280;45349;48.692;8.186;2023-07-24T03:59:05;150463.84;;;17.53;100.00
59531;BME280;45349;48.692;8.186;2023-07-24T04:01:32;150471.34;;;17.56;100.00
59531;BME280;45349;48.692;8.186;2023-07-24T04:03:58;150476.34;;;17.59;100.00
59531;BME280;45349;48.692;8.186;2023-07-24T04:06:25;150491.38;;;17.65;100.00
59531;BME280;45349;48.692;8.186;2023-07-24T04:08:52;150516.38;;;17.75;100.00
59531;BME280;45349;48.692;8.186;2023-07-24T04:11:18;150542.63;;;17.86;100.00
59531;BME280;45349;48.692;8.186;2023-07-24T04:13:46;150551.41;;;17.90;100.00
59531;BME280;45349;48.692;8.186;2023-07-24T04:16:12;150558.94;;;17.93;100.00
59531;BME280;45349;48.692;8.186;2023-07-24T04:18:39;150605.25;;;18.12;99.83
59531;BME280;45349;48.692;8.186;2023-07-24T04:21:06;150602.75;;;18.11;100.00
59531;BME280;45349;48.692;8.186;2023-07-24T04:23:32;150601.47;;;18.10;100.00
59531;BME280;45349;48.692;8.186;2023-07-24T04:25:59;150600.25;;;18.10;100.00
59531;BME280;45349;48.692;8.186;2023-07-24T04:28:25;150607.75;;;18.13;100.00
59531;BME280;45349;48.692;8.186;2023-07-24T04:30:53;150607.75;;;18.13;100.00
59531;BME280;45349;48.692;8.186;2023-07-24T04:33:20;150600.25;;;18.10;100.00
59531;BME280;45349;48.692;8.186;2023-07-24T04:35:47;150597.75;;;18.09;100.00
59531;BME280;45349;48.692;8.186;2023-07-24T04:38:14;150601.47;;;18.10;100.00
59531;BME280;45349;48.692;8.186;2023-07-24T04:40:43;150601.47;;;18.10;100.00
59531;BME280;45349;48.692;8.186;2023-07-24T04:43:10;150602.75;;;18.11;100.00
59531;BME280;45349;48.692;8.186;2023-07-24T04:45:36;150616.50;;;18.17;100.00
59531;BME280;45349;48.692;8.186;2023-07-24T04:48:05;150612.75;;;18.15;100.00
59531;BME280;45349;48.692;8.186;2023-07-24T04:50:31;150616.50;;;18.17;100.00
59531;BME280;45349;48.692;8.186;2023-07-24T04:52:58;150621.50;;;18.19;100.00
59531;BME280;45349;48.692;8.186;2023-07-24T04:55:25;150636.50;;;18.25;100.00
59531;BME280;45349;48.692;8.186;2023-07-24T04:57:52;150641.50;;;18.27;100.00
59531;BME280;45349;48.692;8.186;2023-07-24T05:00:18;150657.81;;;18.34;100.00
59531;BME280;45349;48.692;8.186;2023-07-24T05:02:45;150666.56;;;18.37;100.00
59531;BME280;45349;48.692;8.186;2023-07-24T05:05:13;150679.06;;;18.42;100.00
59531;BME280;45349;48.692;8.186;2023-07-24T05:07:39;150692.84;;;18.48;100.00
59531;BME280;45349;48.692;8.186;2023-07-24T05:10:07;150701.59;;;18.52;100.00
59531;BME280;45349;48.692;8.186;2023-07-24T05:12:33;150720.34;;;18.59;100.00
59531;BME280;45349;48.692;8.186;2023-07-24T05:15:00;150751.66;;;18.72;99.03
59531;BME280;45349;48.692;8.186;2023-07-24T05:17:27;150780.44;;;18.84;98.60
59531;BME280;45349;48.692;8.186;2023-07-24T05:19:54;150790.44;;;18.88;99.05
59531;BME280;45349;48.692;8.186;2023-07-24T05:22:22;150830.56;;;19.05;92.67
59531;BME280;45349;48.692;8.186;2023-07-24T05:24:48;150856.84;;;19.16;91.63
59531;BME280;45349;48.692;8.186;2023-07-24T05:27:15;150879.38;;;19.25;92.36
59531;BME280;45349;48.692;8.186;2023-07-24T05:29:42;150904.41;;;19.36;92.93
59531;BME280;45349;48.692;8.186;2023-07-24T05:32:08;150931.97;;;19.47;91.61
59531;BME280;45349;48.692;8.186;2023-07-24T05:34:35;150968.25;;;19.62;90.64
59531;BME280;45349;48.692;8.186;2023-07-24T05:37:02;150945.78;;;19.53;91.62
59531;BME280;45349;48.692;8.186;2023-07-24T05:39:30;150924.47;;;19.44;92.57
59531;BME280;45349;48.692;8.186;2023-07-24T05:41:57;150931.97;;;19.47;92.92
59531;BME280;45349;48.692;8.186;2023-07-24T05:44:23;150924.47;;;19.44;92.05
59531;BME280;45349;48.692;8.186;2023-07-24T05:46:53;150890.66;;;19.30;94.19
59531;BME280;45349;48.692;8.186;2023-07-24T05:49:19;150874.38;;;19.23;94.03
59531;BME280;45349;48.692;8.186;2023-07-24T05:51:50;150879.38;;;19.25;95.13
59531;BME280;45349;48.692;8.186;2023-07-24T05:54:17;150881.88;;;19.26;95.96
59531;BME280;45349;48.692;8.186;2023-07-24T05:56:45;150896.91;;;19.32;97.16
59531;BME280;45349;48.692;8.186;2023-07-24T05:59:11;150876.88;;;19.24;96.50
59531;BME280;45349;48.692;8.186;2023-07-24T06:01:38;150898.19;;;19.33;97.33
59531;BME280;45349;48.692;8.186;2023-07-24T06:04:05;150901.91;;;19.35;96.58
59531;BME280;45349;48.692;8.186;2023-07-24T06:06:32;150908.19;;;19.37;96.96
59531;BME280;45349;48.692;8.186;2023-07-24T06:08:59;150905.69;;;19.36;97.68
59531;BME280;45349;48.692;8.186;2023-07-24T06:11:26;150903.19;;;19.35;99.22
59531;BME280;45349;48.692;8.186;2023-07-24T06:13:54;150914.44;;;19.40;99.69
59531;BME280;45349;48.692;8.186;2023-07-24T06:16:20;150926.97;;;19.45;98.33
59531;BME280;45349;48.692;8.186;2023-07-24T06:18:47;150924.47;;;19.44;98.94
59531;BME280;45349;48.692;8.186;2023-07-24T06:21:13;150957.03;;;19.57;98.78
59531;BME280;45349;48.692;8.186;2023-07-24T06:23:40;151002.09;;;19.76;99.00
59531;BME280;45349;48.692;8.186;2023-07-24T06:26:06;151040.97;;;19.92;99.34
59531;BME280;45349;48.692;8.186;2023-07-24T06:28:33;151089.84;;;20.12;97.03
59531;BME280;45349;48.692;8.186;2023-07-24T06:31:01;151144.94;;;20.35;95.61
59531;BME280;45349;48.692;8.186;2023-07-24T06:33:27;151197.56;;;20.57;93.91
59531;BME280;45349;48.692;8.186;2023-07-24T06:35:54;151245.19;;;20.76;94.71
59531;BME280;45349;48.692;8.186;2023-07-24T06:38:20;151292.84;;;20.96;90.40
59531;BME280;45349;48.692;8.186;2023-07-24T06:40:47;151337.97;;;21.15;89.60
59531;BME280;45349;48.692;8.186;2023-07-24T06:43:14;151411.91;;;21.45;84.92
59531;BME280;45349;48.692;8.186;2023-07-24T06:45:41;151488.44;;;21.77;81.13
59531;BME280;45349;48.692;8.186;2023-07-24T06:48:09;151519.75;;;21.90;71.52
59531;BME280;45349;48.692;8.186;2023-07-24T06:50:35;151506.00;;;21.84;71.95
59531;BME280;45349;48.692;8.186;2023-07-24T06:53:02;151518.53;;;21.89;71.39
59531;BME280;45349;48.692;8.186;2023-07-24T06:55:28;151473.38;;;21.71;75.46
59531;BME280;45349;48.692;8.186;2023-07-24T06:57:55;151438.22;;;21.56;76.46
59531;BME280;45349;48.692;8.186;2023-07-24T07:00:21;151408.13;;;21.44;80.74
59531;BME280;45349;48.692;8.186;2023-07-24T07:02:48;151355.47;;;21.22;81.07
59531;BME280;45349;48.692;8.186;2023-07-24T07:05:16;151317.94;;;21.06;83.53
59531;BME280;45349;48.692;8.186;2023-07-24T07:07:43;151287.84;;;20.94;84.60
59531;BME280;45349;48.692;8.186;2023-07-24T07:10:10;151257.75;;;20.82;85.96
59531;BME280;45349;48.692;8.186;2023-07-24T07:12:36;151243.91;;;20.76;85.30
59531;BME280;45349;48.692;8.186;2023-07-24T07:15:03;151243.91;;;20.76;84.95
59531;BME280;45349;48.692;8.186;2023-07-24T07:17:30;151222.63;;;20.67;88.38
59531;BME280;45349;48.692;8.186;2023-07-24T07:19:57;151193.81;;;20.55;89.50
59531;BME280;45349;48.692;8.186;2023-07-24T07:22:24;151175.00;;;20.47;88.96
59531;BME280;45349;48.692;8.186;2023-07-24T07:24:51;151158.72;;;20.41;90.78
59531;BME280;45349;48.692;8.186;2023-07-24T07:27:18;151138.69;;;20.32;91.74
59531;BME280;45349;48.692;8.186;2023-07-24T07:29:44;151107.34;;;20.19;94.25
59531;BME280;45349;48.692;8.186;2023-07-24T07:32:11;151068.53;;;20.03;96.30
59531;BME280;45349;48.692;8.186;2023-07-24T07:34:37;151064.78;;;20.02;93.99
59531;BME280;45349;48.692;8.186;2023-07-24T07:37:05;151047.25;;;19.95;95.47
59531;BME280;45349;48.692;8.186;2023-07-24T07:39:33;151032.16;;;19.88;96.52
59531;BME280;45349;48.692;8.186;2023-07-24T07:41:59;151019.66;;;19.83;98.12
59531;BME280;45349;48.692;8.186;2023-07-24T07:44:26;151013.38;;;19.81;98.79
59531;BME280;45349;48.692;8.186;2023-07-24T07:46:53;151029.66;;;19.87;98.99
59531;BME280;45349;48.692;8.186;2023-07-24T07:49:19;151020.88;;;19.84;98.46
59531;BME280;45349;48.692;8.186;2023-07-24T07:52:11;151012.13;;;19.80;98.27
59531;BME280;45349;48.692;8.186;2023-07-24T07:54:46;151029.66;;;19.87;98.31
59531;BME280;45349;48.692;8.186;2023-07-24T07:57:13;151094.81;;;20.14;98.54
59531;BME280;45349;48.692;8.186;2023-07-24T07:59:40;151126.16;;;20.27;97.60
59531;BME280;45349;48.692;8.186;2023-07-24T08:02:06;151164.97;;;20.43;95.62
59531;BME280;45349;48.692;8.186;2023-07-24T08:04:33;151211.38;;;20.62;94.14
59531;BME280;45349;48.692;8.186;2023-07-24T08:07:00;151262.78;;;20.84;93.90
59531;BME280;45349;48.692;8.186;2023-07-24T08:09:26;151280.31;;;20.91;94.97
59531;BME280;45349;48.692;8.186;2023-07-24T08:11:57;151327.94;;;21.11;93.54
59531;BME280;45349;48.692;8.186;2023-07-24T08:14:23;151358.00;;;21.23;99.51
59531;BME280;45349;48.692;8.186;2023-07-24T08:16:53;151413.16;;;21.46;97.95
59531;BME280;45349;48.692;8.186;2023-07-24T08:19:20;151495.97;;;21.80;97.16
59531;BME280;45349;48.692;8.186;2023-07-24T08:22:11;151616.31;;;22.30;95.77
59531;BME280;45349;48.692;8.186;2023-07-24T08:24:38;151686.59;;;22.59;93.58
59531;BME280;45349;48.692;8.186;2023-07-24T08:27:06;151749.34;;;22.84;90.26
59531;BME280;45349;48.692;8.186;2023-07-24T08:29:32;151741.81;;;22.81;83.04
59531;BME280;45349;48.692;8.186;2023-07-24T08:32:01;151694.13;;;22.62;80.12
59531;BME280;45349;48.692;8.186;2023-07-24T08:34:27;151822.09;;;23.14;79.85
59531;BME280;45349;48.692;8.186;2023-07-24T08:36:54;151909.97;;;23.51;76.95
59531;BME280;45349;48.692;8.186;2023-07-24T08:39:21;151997.81;;;23.87;79.27
59531;BME280;45349;48.692;8.186;2023-07-24T08:41:53;152036.78;;;24.03;73.32
59531;BME280;45349;48.692;8.186;2023-07-24T08:44:21;152075.72;;;24.19;69.66
59531;BME280;45349;48.692;8.186;2023-07-24T08:46:53;152033.03;;;24.01;71.09
59531;BME280;45349;48.692;8.186;2023-07-24T08:49:20;152107.06;;;24.32;77.06
59531;BME280;45349;48.692;8.186;2023-07-24T08:52:11;152183.66;;;24.64;77.99
59531;BME280;45349;48.692;8.186;2023-07-24T08:54:38;152270.34;;;24.99;74.80
59531;BME280;45349;48.692;8.186;2023-07-24T08:57:06;152272.84;;;25.00;74.88
59531;BME280;45349;48.692;8.186;2023-07-24T08:59:34;152349.50;;;25.32;73.39
59531;BME280;45349;48.692;8.186;2023-07-24T09:02:01;152244.00;;;24.88;71.88
59531;BME280;45349;48.692;8.186;2023-07-24T09:04:28;152387.19;;;25.47;70.46
59531;BME280;45349;48.692;8.186;2023-07-24T09:06:58;152135.94;;;24.44;70.77
59531;BME280;45349;48.692;8.186;2023-07-24T09:09:29;152194.97;;;24.68;68.48
59531;BME280;45349;48.692;8.186;2023-07-24T09:11:56;152110.88;;;24.34;70.25
59531;BME280;45349;48.692;8.186;2023-07-24T09:14:24;152010.38;;;23.92;71.29
59531;BME280;45349;48.692;8.186;2023-07-24T09:17:07;151965.19;;;23.73;76.35
59531;BME280;45349;48.692;8.186;2023-07-24T09:19:35;151792.00;;;23.02;77.81
59531;BME280;45349;48.692;8.186;2023-07-24T09:22:09;151699.16;;;22.64;79.35
59531;BME280;45349;48.692;8.186;2023-07-24T09:24:36;151711.69;;;22.69;78.53
59531;BME280;45349;48.692;8.186;2023-07-24T09:27:05;151613.78;;;22.29;80.99
59531;BME280;45349;48.692;8.186;2023-07-24T09:29:32;151516.00;;;21.88;83.62
59531;BME280;45349;48.692;8.186;2023-07-24T09:31:59;151547.34;;;22.01;84.68
59531;BME280;45349;48.692;8.186;2023-07-24T09:34:27;151521.03;;;21.90;82.49
59531;BME280;45349;48.692;8.186;2023-07-24T09:36:54;151477.16;;;21.72;84.74
59531;BME280;45349;48.692;8.186;2023-07-24T09:39:24;151388.06;;;21.35;86.46
59531;BME280;45349;48.692;8.186;2023-07-24T09:41:53;151379.31;;;21.32;84.41
59531;BME280;45349;48.692;8.186;2023-07-24T09:44:20;151373.03;;;21.29;85.47
59531;BME280;45349;48.692;8.186;2023-07-24T09:47:11;151361.78;;;21.24;87.91
59531;BME280;45349;48.692;8.186;2023-07-24T09:49:39;151322.94;;;21.08;88.45
59531;BME280;45349;48.692;8.186;2023-07-24T09:52:08;151296.59;;;20.98;89.93
59531;BME280;45349;48.692;8.186;2023-07-24T09:54:40;151267.78;;;20.86;90.35
59531;BME280;45349;48.692;8.186;2023-07-24T09:57:11;151237.66;;;20.73;90.70
59531;BME280;45349;48.692;8.186;2023-07-24T09:59:40;151222.63;;;20.67;88.82
59531;BME280;45349;48.692;8.186;2023-07-24T10:02:10;151192.53;;;20.55;90.76
59531;BME280;45349;48.692;8.186;2023-07-24T10:04:37;151164.97;;;20.43;91.30
59531;BME280;45349;48.692;8.186;2023-07-24T10:07:07;151141.19;;;20.33;91.22
59531;BME280;45349;48.692;8.186;2023-07-24T10:09:36;151108.63;;;20.20;94.53
59531;BME280;45349;48.692;8.186;2023-07-24T10:12:03;151048.47;;;19.95;96.61
59531;BME280;45349;48.692;8.186;2023-07-24T10:14:30;150997.09;;;19.74;97.15
59531;BME280;45349;48.692;8.186;2023-07-24T10:16:57;151004.63;;;19.77;96.42
59531;BME280;45349;48.692;8.186;2023-07-24T10:19:23;150994.59;;;19.73;98.14
59531;BME280;45349;48.692;8.186;2023-07-24T10:21:53;150989.59;;;19.71;99.18
59531;BME280;45349;48.692;8.186;2023-07-24T10:24:28;150960.81;;;19.59;100.00
59531;BME280;45349;48.692;8.186;2023-07-24T10:26:56;150949.50;;;19.54;100.00
59531;BME280;45349;48.692;8.186;2023-07-24T10:29:23;150952.00;;;19.55;99.92
59531;BME280;45349;48.692;8.186;2023-07-24T10:31:53;150924.47;;;19.44;100.00
59531;BME280;45349;48.692;8.186;2023-07-24T10:34:20;150943.28;;;19.52;100.00
59531;BME280;45349;48.692;8.186;2023-07-24T10:37:02;150919.44;;;19.42;100.00
59531;BME280;45349;48.692;8.186;2023-07-24T10:39:37;150914.44;;;19.40;100.00
59531;BME280;45349;48.692;8.186;2023-07-24T10:42:05;150943.28;;;19.52;100.00
59531;BME280;45349;48.692;8.186;2023-07-24T10:44:32;150924.47;;;19.44;100.00
59531;BME280;45349;48.692;8.186;2023-07-24T10:46:59;150929.47;;;19.46;98.84
59531;BME280;45349;48.692;8.186;2023-07-24T10:49:25;150934.47;;;19.48;98.27
59531;BME280;45349;48.692;8.186;2023-07-24T10:51:55;150938.25;;;19.50;97.14
59531;BME280;45349;48.692;8.186;2023-07-24T10:54:22;150942.00;;;19.51;96.94
59531;BME280;45349;48.692;8.186;2023-07-24T10:57:03;150942.00;;;19.51;93.22
59531;BME280;45349;48.692;8.186;2023-07-24T10:59:37;150935.75;;;19.49;93.84
59531;BME280;45349;48.692;8.186;2023-07-24T11:02:04;150934.47;;;19.48;94.09
59531;BME280;45349;48.692;8.186;2023-07-24T11:04:31;150965.75;;;19.61;91.45
59531;BME280;45349;48.692;8.186;2023-07-24T11:07:00;151028.41;;;19.87;89.62
59531;BME280;45349;48.692;8.186;2023-07-24T11:09:34;151109.84;;;20.20;88.31
59531;BME280;45349;48.692;8.186;2023-07-24T11:12:11;151180.00;;;20.49;85.04
59531;BME280;45349;48.692;8.186;2023-07-24T11:14:46;151356.75;;;21.22;84.51
59531;BME280;45349;48.692;8.186;2023-07-24T11:17:13;151439.50;;;21.57;82.08
59531;BME280;45349;48.692;8.186;2023-07-24T11:19:39;151571.19;;;22.11;79.80
59531;BME280;45349;48.692;8.186;2023-07-24T11:22:06;151597.50;;;22.22;77.53
59531;BME280;45349;48.692;8.186;2023-07-24T11:24:42;151701.66;;;22.65;78.89
59531;BME280;45349;48.692;8.186;2023-07-24T11:27:12;151652.75;;;22.45;74.66
59531;BME280;45349;48.692;8.186;2023-07-24T11:29:39;151730.53;;;22.77;74.47
59531;BME280;45349;48.692;8.186;2023-07-24T11:32:06;151675.34;;;22.54;74.32
59531;BME280;45349;48.692;8.186;2023-07-24T11:34:33;151517.25;;;21.89;76.20
59531;BME280;45349;48.692;8.186;2023-07-24T11:37:00;151424.47;;;21.50;76.87
59531;BME280;45349;48.692;8.186;2023-07-24T11:39:27;151408.13;;;21.44;79.13
59531;BME280;45349;48.692;8.186;2023-07-24T11:41:53;151391.88;;;21.37;81.47
59531;BME280;45349;48.692;8.186;2023-07-24T11:44:26;151363.00;;;21.25;82.65
59531;BME280;45349;48.692;8.186;2023-07-24T11:47:00;151380.56;;;21.32;84.21
59531;BME280;45349;48.692;8.186;2023-07-24T11:49:27;151370.53;;;21.28;82.50
59531;BME280;45349;48.692;8.186;2023-07-24T11:51:59;151359.28;;;21.23;79.71
59531;BME280;45349;48.692;8.186;2023-07-24T11:54:26;151349.25;;;21.19;81.67
59531;BME280;45349;48.692;8.186;2023-07-24T11:56:53;151211.38;;;20.62;83.41
59531;BME280;45349;48.692;8.186;2023-07-24T11:59:19;151190.03;;;20.54;83.14
59531;BME280;45349;48.692;8.186;2023-07-24T12:01:54;151157.47;;;20.40;85.90
59531;BME280;45349;48.692;8.186;2023-07-24T12:04:25;151035.94;;;19.90;89.56
59531;BME280;45349;48.692;8.186;2023-07-24T12:06:53;151020.88;;;19.84;91.16
59531;BME280;45349;48.692;8.186;2023-07-24T12:09:19;150992.09;;;19.72;92.02
59531;BME280;45349;48.692;8.186;2023-07-24T12:11:50;150904.41;;;19.36;93.84
59531;BME280;45349;48.692;8.186;2023-07-24T12:14:16;150888.16;;;19.29;95.39
59531;BME280;45349;48.692;8.186;2023-07-24T12:16:43;150919.44;;;19.42;95.59
59531;BME280;45349;48.692;8.186;2023-07-24T12:19:11;150942.00;;;19.51;97.32
59531;BME280;45349;48.692;8.186;2023-07-24T12:21:37;150959.53;;;19.58;95.94
59531;BME280;45349;48.692;8.186;2023-07-24T12:24:05;151013.38;;;19.81;95.79
59531;BME280;45349;48.692;8.186;2023-07-24T12:26:31;150974.56;;;19.65;92.63
59531;BME280;45349;48.692;8.186;2023-07-24T12:28:57;150989.59;;;19.71;93.09
59531;BME280;45349;48.692;8.186;2023-07-24T12:31:25;151009.63;;;19.79;92.61
59531;BME280;45349;48.692;8.186;2023-07-24T12:33:52;151020.88;;;19.84;93.26
59531;BME280;45349;48.692;8.186;2023-07-24T12:36:20;151059.78;;;20.00;90.93
59531;BME280;45349;48.692;8.186;2023-07-24T12:38:46;151032.16;;;19.88;91.81
59531;BME280;45349;48.692;8.186;2023-07-24T12:41:13;151102.31;;;20.17;88.57
59531;BME280;45349;48.692;8.186;2023-07-24T12:43:40;151161.25;;;20.42;88.28
59531;BME280;45349;48.692;8.186;2023-07-24T12:46:06;151113.63;;;20.22;89.58
59531;BME280;45349;48.692;8.186;2023-07-24T12:48:33;151220.13;;;20.66;90.37
59531;BME280;45349;48.692;8.186;2023-07-24T12:51:01;151167.47;;;20.44;87.79
59531;BME280;45349;48.692;8.186;2023-07-24T12:53:29;151203.84;;;20.59;88.30
59531;BME280;45349;48.692;8.186;2023-07-24T12:55:55;151190.03;;;20.54;88.72